sensor_id;sensor_type;location;lat;lon;timestamp;pressure;altitude;pressure_sealevel;temperature;humidity
35435;BME280;21556;55.782;37.528;2022-08-19T00:01:25;100347.13;;;23.32;100.00
35435;BME280;21556;55.782;37.528;2022-08-19T00:03:51;100350.41;;;23.42;100.00
35435;BME280;21556;55.782;37.528;2022-08-19T00:06:18;100353.94;;;23.44;100.00
35435;BME280;21556;55.782;37.528;2022-08-19T00:08:44;100357.63;;;23.40;100.00
35435;BME280;21556;55.782;37.528;2022-08-19T00:11:10;100356.81;;;23.36;100.00
35435;BME280;21556;55.782;37.528;2022-08-19T00:13:39;100355.16;;;23.30;100.00
35435;BME280;21556;55.782;37.528;2022-08-19T00:16:06;100354.28;;;23.32;100.00
35435;BME280;21556;55.782;37.528;2022-08-19T00:18:32;100352.75;;;23.20;100.00
35435;BME280;21556;55.782;37.528;2022-08-19T00:21:01;100353.50;;;23.26;100.00
35435;BME280;21556;55.782;37.528;2022-08-19T00:23:27;100354.69;;;23.15;100.00
35435;BME280;21556;55.782;37.528;2022-08-19T00:25:53;100360.25;;;23.05;100.00
35435;BME280;21556;55.782;37.528;2022-08-19T00:28:19;100367.53;;;23.00;100.00
35435;BME280;21556;55.782;37.528;2022-08-19T00:30:46;100357.94;;;22.92;100.00
35435;BME280;21556;55.782;37.528;2022-08-19T00:33:12;100364.44;;;22.78;100.00
35435;BME280;21556;55.782;37.528;2022-08-19T00:35:39;100361.56;;;22.88;100.00
35435;BME280;21556;55.782;37.528;2022-08-19T00:38:05;100351.25;;;22.71;100.00
35435;BME280;21556;55.782;37.528;2022-08-19T00:40:33;100362.53;;;22.83;100.00
35435;BME280;21556;55.782;37.528;2022-08-19T00:42:59;100366.91;;;22.88;100.00
35435;BME280;21556;55.782;37.528;2022-08-19T00:45:27;100367.78;;;22.88;100.00
35435;BME280;21556;55.782;37.528;2022-08-19T00:47:56;100370.47;;;22.88;100.00
35435;BME280;21556;55.782;37.528;2022-08-19T00:50:21;100363.63;;;22.75;100.00
35435;BME280;21556;55.782;37.528;2022-08-19T00:52:50;100365.53;;;22.70;100.00
35435;BME280;21556;55.782;37.528;2022-08-19T00:55:22;100366.34;;;22.73;100.00
35435;BME280;21556;55.782;37.528;2022-08-19T00:57:56;100367.47;;;22.63;100.00
35435;BME280;21556;55.782;37.528;2022-08-19T01:00:24;100371.19;;;22.56;100.00
35435;BME280;21556;55.782;37.528;2022-08-19T01:02:52;100378.34;;;22.55;100.00
35435;BME280;21556;55.782;37.528;2022-08-19T01:05:25;100376.44;;;22.61;100.00
35435;BME280;21556;55.782;37.528;2022-08-19T01:07:53;100383.91;;;22.43;100.00
35435;BME280;21556;55.782;37.528;2022-08-19T01:10:23;100390.06;;;22.48;100.00
35435;BME280;21556;55.782;37.528;2022-08-19T01:12:51;100392.09;;;22.35;100.00
35435;BME280;21556;55.782;37.528;2022-08-19T01:15:21;100413.00;;;22.14;100.00
35435;BME280;21556;55.782;37.528;2022-08-19T01:17:48;100414.88;;;22.10;100.00
35435;BME280;21556;55.782;37.528;2022-08-19T01:20:18;100407.81;;;22.06;100.00
35435;BME280;21556;55.782;37.528;2022-08-19T01:22:47;100408.94;;;21.94;100.00
35435;BME280;21556;55.782;37.528;2022-08-19T01:25:15;100402.38;;;22.12;100.00
35435;BME280;21556;55.782;37.528;2022-08-19T01:27:49;100398.78;;;22.13;100.00
35435;BME280;21556;55.782;37.528;2022-08-19T01:30:20;100402.31;;;22.17;100.00
35435;BME280;21556;55.782;37.528;2022-08-19T01:32:49;100406.78;;;22.13;100.00
35435;BME280;21556;55.782;37.528;2022-08-19T01:35:15;100412.25;;;22.07;100.00
35435;BME280;21556;55.782;37.528;2022-08-19T01:37:52;100404.13;;;22.13;100.00
35435;BME280;21556;55.782;37.528;2022-08-19T01:40:21;100406.84;;;22.10;100.00
35435;BME280;21556;55.782;37.528;2022-08-19T01:42:51;100405.31;;;21.98;100.00
35435;BME280;21556;55.782;37.528;2022-08-19T01:45:19;100396.25;;;22.05;100.00
35435;BME280;21556;55.782;37.528;2022-08-19T01:47:46;100402.78;;;21.89;100.00
35435;BME280;21556;55.782;37.528;2022-08-19T01:50:12;100402.16;;;21.75;100.00
35435;BME280;21556;55.782;37.528;2022-08-19T01:52:39;100399.97;;;21.97;100.00
35435;BME280;21556;55.782;37.528;2022-08-19T01:55:08;100400.25;;;21.81;100.00
35435;BME280;21556;55.782;37.528;2022-08-19T01:57:34;100393.00;;;21.90;100.00
35435;BME280;21556;55.782;37.528;2022-08-19T02:00:01;100397.22;;;22.01;100.00
35435;BME280;21556;55.782;37.528;2022-08-19T02:02:37;100398.50;;;21.80;100.00
35435;BME280;21556;55.782;37.528;2022-08-19T02:05:06;100398.66;;;21.73;100.00
35435;BME280;21556;55.782;37.528;2022-08-19T02:07:34;100404.72;;;21.82;100.00
35435;BME280;21556;55.782;37.528;2022-08-19T02:10:05;100399.16;;;21.93;100.00
35435;BME280;21556;55.782;37.528;2022-08-19T02:12:32;100392.09;;;21.89;100.00
35435;BME280;21556;55.782;37.528;2022-08-19T02:14:59;100396.56;;;21.90;100.00
35435;BME280;21556;55.782;37.528;2022-08-19T02:17:25;100398.41;;;21.85;100.00
35435;BME280;21556;55.782;37.528;2022-08-19T02:19:50;100394.88;;;21.84;100.00
35435;BME280;21556;55.782;37.528;2022-08-19T02:22:16;100381.56;;;21.83;100.00
35435;BME280;21556;55.782;37.528;2022-08-19T02:24:42;100376.22;;;21.83;100.00
35435;BME280;21556;55.782;37.528;2022-08-19T02:27:08;100388.56;;;21.88;100.00
35435;BME280;21556;55.782;37.528;2022-08-19T02:29:34;100413.41;;;21.94;100.00
35435;BME280;21556;55.782;37.528;2022-08-19T02:31:59;100416.19;;;21.87;100.00
35435;BME280;21556;55.782;37.528;2022-08-19T02:34:25;100425.59;;;21.59;100.00
35435;BME280;21556;55.782;37.528;2022-08-19T02:36:54;100430.88;;;21.62;100.00
35435;BME280;21556;55.782;37.528;2022-08-19T02:39:20;100433.31;;;21.74;100.00
35435;BME280;21556;55.782;37.528;2022-08-19T02:41:46;100429.03;;;21.64;100.00
35435;BME280;21556;55.782;37.528;2022-08-19T02:47:34;100433.63;;;21.57;100.00
35435;BME280;21556;55.782;37.528;2022-08-19T02:50:29;100423.75;;;21.62;100.00
35435;BME280;21556;55.782;37.528;2022-08-19T02:52:58;100423.06;;;21.51;100.00
35435;BME280;21556;55.782;37.528;2022-08-19T02:55:23;100423.06;;;21.51;100.00
35435;BME280;21556;55.782;37.528;2022-08-19T02:57:49;100424.63;;;21.65;100.00
35435;BME280;21556;55.782;37.528;2022-08-19T03:00:15;100427.09;;;21.74;100.00
35435;BME280;21556;55.782;37.528;2022-08-19T03:02:41;100425.63;;;21.56;100.00
35435;BME280;21556;55.782;37.528;2022-08-19T03:05:09;100425.59;;;21.59;100.00
35435;BME280;21556;55.782;37.528;2022-08-19T03:07:36;100432.91;;;21.48;100.00
35435;BME280;21556;55.782;37.528;2022-08-19T03:10:02;100418.31;;;21.67;100.00
35435;BME280;21556;55.782;37.528;2022-08-19T03:12:29;100425.75;;;21.50;100.00
35435;BME280;21556;55.782;37.528;2022-08-19T03:14:55;100422.44;;;21.34;100.00
35435;BME280;21556;55.782;37.528;2022-08-19T03:17:21;100428.44;;;21.50;100.00
35435;BME280;21556;55.782;37.528;2022-08-19T03:19:47;100432.72;;;21.58;100.00
35435;BME280;21556;55.782;37.528;2022-08-19T03:22:12;100429.09;;;21.62;100.00
35435;BME280;21556;55.782;37.528;2022-08-19T03:24:39;100444.28;;;21.59;100.00
35435;BME280;21556;55.782;37.528;2022-08-19T03:27:05;100436.34;;;21.53;100.00
35435;BME280;21556;55.782;37.528;2022-08-19T03:29:32;100430.41;;;21.37;100.00
35435;BME280;21556;55.782;37.528;2022-08-19T03:31:59;100428.44;;;21.50;100.00
35435;BME280;21556;55.782;37.528;2022-08-19T03:34:27;100433.00;;;21.42;100.00
35435;BME280;21556;55.782;37.528;2022-08-19T03:36:55;100429.53;;;21.36;100.00
35435;BME280;21556;55.782;37.528;2022-08-19T03:39:23;100439.47;;;21.25;100.00
35435;BME280;21556;55.782;37.528;2022-08-19T03:41:50;100436.66;;;21.36;100.00
35435;BME280;21556;55.782;37.528;2022-08-19T03:44:19;100432.16;;;21.39;100.00
35435;BME280;21556;55.782;37.528;2022-08-19T03:46:51;100430.13;;;21.52;100.00
35435;BME280;21556;55.782;37.528;2022-08-19T03:49:18;100439.34;;;21.31;100.00
35435;BME280;21556;55.782;37.528;2022-08-19T03:51:46;100432.47;;;21.16;100.00
35435;BME280;21556;55.782;37.528;2022-08-19T03:54:14;100436.38;;;20.91;100.00
35435;BME280;21556;55.782;37.528;2022-08-19T03:56:43;100440.25;;;21.30;100.00
35435;BME280;21556;55.782;37.528;2022-08-19T03:59:11;100431.19;;;21.44;100.00
35435;BME280;21556;55.782;37.528;2022-08-19T04:01:37;100432.19;;;21.36;100.00
35435;BME280;21556;55.782;37.528;2022-08-19T04:04:03;100425.06;;;21.37;100.00
35435;BME280;21556;55.782;37.528;2022-08-19T04:06:34;100429.56;;;21.33;100.00
35435;BME280;21556;55.782;37.528;2022-08-19T04:09:03;100427.59;;;21.46;100.00
35435;BME280;21556;55.782;37.528;2022-08-19T04:11:41;100428.31;;;21.56;100.00
35435;BME280;21556;55.782;37.528;2022-08-19T04:14:17;100425.69;;;21.54;100.00
35435;BME280;21556;55.782;37.528;2022-08-19T04:16:44;100426.59;;;21.52;100.00
35435;BME280;21556;55.782;37.528;2022-08-19T04:19:10;100429.91;;;21.66;100.00
35435;BME280;21556;55.782;37.528;2022-08-19T04:21:36;100430.66;;;21.76;100.00
35435;BME280;21556;55.782;37.528;2022-08-19T04:24:03;100438.84;;;21.63;100.00
35435;BME280;21556;55.782;37.528;2022-08-19T04:26:34;100439.50;;;21.79;100.00
35435;BME280;21556;55.782;37.528;2022-08-19T04:29:09;100444.00;;;21.74;100.00
35435;BME280;21556;55.782;37.528;2022-08-19T04:31:35;100451.22;;;21.69;100.00
35435;BME280;21556;55.782;37.528;2022-08-19T04:34:07;100456.75;;;21.58;100.00
35435;BME280;21556;55.782;37.528;2022-08-19T04:36:38;100449.00;;;21.43;100.00
35435;BME280;21556;55.782;37.528;2022-08-19T04:39:07;100452.94;;;21.73;100.00
35435;BME280;21556;55.782;37.528;2022-08-19T04:41:34;100453.72;;;21.80;100.00
35435;BME280;21556;55.782;37.528;2022-08-19T04:44:18;100456.47;;;21.74;100.00
35435;BME280;21556;55.782;37.528;2022-08-19T04:46:46;100448.31;;;21.83;100.00
35435;BME280;21556;55.782;37.528;2022-08-19T04:49:14;100443.78;;;21.88;100.00
35435;BME280;21556;55.782;37.528;2022-08-19T04:51:44;100452.31;;;22.07;100.00
35435;BME280;21556;55.782;37.528;2022-08-19T04:54:10;100453.13;;;22.12;100.00
35435;BME280;21556;55.782;37.528;2022-08-19T04:56:45;100452.16;;;22.18;100.00
35435;BME280;21556;55.782;37.528;2022-08-19T04:59:16;100454.66;;;22.25;100.00
35435;BME280;21556;55.782;37.528;2022-08-19T05:01:48;100458.13;;;22.32;100.00
35435;BME280;21556;55.782;37.528;2022-08-19T05:04:18;100463.66;;;22.23;100.00
35435;BME280;21556;55.782;37.528;2022-08-19T05:06:45;100458.31;;;22.23;100.00
35435;BME280;21556;55.782;37.528;2022-08-19T05:09:13;100459.13;;;22.26;100.00
35435;BME280;21556;55.782;37.528;2022-08-19T05:11:39;100460.41;;;22.52;100.00
35435;BME280;21556;55.782;37.528;2022-08-19T05:14:07;100457.72;;;22.52;100.00
35435;BME280;21556;55.782;37.528;2022-08-19T05:16:33;100458.13;;;22.32;100.00
35435;BME280;21556;55.782;37.528;2022-08-19T05:18:59;100448.19;;;22.39;100.00
35435;BME280;21556;55.782;37.528;2022-08-19T05:21:44;100455.06;;;22.52;100.00
35435;BME280;21556;55.782;37.528;2022-08-19T05:24:29;100446.06;;;22.56;100.00
35435;BME280;21556;55.782;37.528;2022-08-19T05:26:56;100451.06;;;22.71;100.00
35435;BME280;21556;55.782;37.528;2022-08-19T05:29:24;100447.47;;;22.72;100.00
35435;BME280;21556;55.782;37.528;2022-08-19T05:31:51;100450.84;;;22.82;100.00
35435;BME280;21556;55.782;37.528;2022-08-19T05:34:18;100452.34;;;22.97;100.00
35435;BME280;21556;55.782;37.528;2022-08-19T05:36:48;100451.59;;;22.89;100.00
35435;BME280;21556;55.782;37.528;2022-08-19T05:39:19;100452.22;;;23.01;100.00
35435;BME280;21556;55.782;37.528;2022-08-19T05:41:49;100452.53;;;23.26;100.00
35435;BME280;21556;55.782;37.528;2022-08-19T05:44:15;100448.81;;;23.34;100.00
35435;BME280;21556;55.782;37.528;2022-08-19T05:46:46;100454.22;;;23.30;100.00
35435;BME280;21556;55.782;37.528;2022-08-19T05:49:16;100448.88;;;23.30;100.00
35435;BME280;21556;55.782;37.528;2022-08-19T05:51:42;100451.78;;;23.21;100.00
35435;BME280;21556;55.782;37.528;2022-08-19T05:54:08;100443.75;;;23.20;100.00
35435;BME280;21556;55.782;37.528;2022-08-19T05:56:35;100467.16;;;23.12;100.00
35435;BME280;21556;55.782;37.528;2022-08-19T05:59:07;100461.13;;;23.02;100.00
35435;BME280;21556;55.782;37.528;2022-08-19T06:01:41;100453.78;;;23.12;100.00
35435;BME280;21556;55.782;37.528;2022-08-19T06:04:08;100443.88;;;23.15;100.00
35435;BME280;21556;55.782;37.528;2022-08-19T06:06:35;100445.50;;;23.22;100.00
35435;BME280;21556;55.782;37.528;2022-08-19T06:09:03;100449.41;;;23.46;100.00
35435;BME280;21556;55.782;37.528;2022-08-19T06:14:02;100446.66;;;23.48;100.00
35435;BME280;21556;55.782;37.528;2022-08-19T06:16:29;100450.03;;;23.56;100.00
35435;BME280;21556;55.782;37.528;2022-08-19T06:18:59;100453.50;;;23.61;100.00
35435;BME280;21556;55.782;37.528;2022-08-19T06:21:27;100458.84;;;23.61;100.00
35435;BME280;21556;55.782;37.528;2022-08-19T06:23:53;100470.69;;;23.51;100.00
35435;BME280;21556;55.782;37.528;2022-08-19T06:26:20;100456.47;;;23.86;100.00
35435;BME280;21556;55.782;37.528;2022-08-19T06:28:47;100467.59;;;24.03;100.00
35435;BME280;21556;55.782;37.528;2022-08-19T06:31:18;100460.78;;;24.24;100.00
35435;BME280;21556;55.782;37.528;2022-08-19T06:33:47;100462.00;;;24.13;100.00
35435;BME280;21556;55.782;37.528;2022-08-19T06:36:27;100451.63;;;24.32;100.00
35435;BME280;21556;55.782;37.528;2022-08-19T06:39:23;100461.88;;;24.50;100.00
35435;BME280;21556;55.782;37.528;2022-08-19T06:41:52;100456.13;;;24.64;100.00
35435;BME280;21556;55.782;37.528;2022-08-19T06:44:20;100450.94;;;24.87;100.00
35435;BME280;21556;55.782;37.528;2022-08-19T06:46:47;100445.75;;;24.81;100.00
35435;BME280;21556;55.782;37.528;2022-08-19T06:49:15;100451.47;;;24.69;100.00
35435;BME280;21556;55.782;37.528;2022-08-19T06:51:42;100458.41;;;24.76;100.00
35435;BME280;21556;55.782;37.528;2022-08-19T06:54:10;100455.25;;;24.63;100.00
35435;BME280;21556;55.782;37.528;2022-08-19T06:56:37;100462.44;;;24.29;100.00
35435;BME280;21556;55.782;37.528;2022-08-19T06:59:12;100455.28;;;24.29;100.00
35435;BME280;21556;55.782;37.528;2022-08-19T07:01:44;100457.13;;;24.27;100.00
35435;BME280;21556;55.782;37.528;2022-08-19T07:04:14;100458.16;;;24.21;100.00
35435;BME280;21556;55.782;37.528;2022-08-19T07:06:41;100455.53;;;24.20;100.00
35435;BME280;21556;55.782;37.528;2022-08-19T07:09:08;100458.16;;;24.21;100.00
35435;BME280;21556;55.782;37.528;2022-08-19T07:11:35;100458.72;;;24.34;100.00
35435;BME280;21556;55.782;37.528;2022-08-19T07:14:01;100460.22;;;24.46;100.00
35435;BME280;21556;55.782;37.528;2022-08-19T07:16:28;100454.59;;;24.22;100.00
35435;BME280;21556;55.782;37.528;2022-08-19T07:18:55;100452.31;;;24.07;100.00
35435;BME280;21556;55.782;37.528;2022-08-19T07:21:25;100450.19;;;24.20;100.00
35435;BME280;21556;55.782;37.528;2022-08-19T07:23:54;100447.16;;;24.32;100.00
35435;BME280;21556;55.782;37.528;2022-08-19T07:26:25;100458.31;;;24.49;100.00
35435;BME280;21556;55.782;37.528;2022-08-19T07:28:51;100455.97;;;24.37;100.00
35435;BME280;21556;55.782;37.528;2022-08-19T07:31:19;100471.56;;;24.56;100.00
35435;BME280;21556;55.782;37.528;2022-08-19T07:33:45;100457.59;;;24.44;100.00
35435;BME280;21556;55.782;37.528;2022-08-19T07:36:14;100464.47;;;24.53;100.00
35435;BME280;21556;55.782;37.528;2022-08-19T07:38:41;100457.31;;;24.83;100.00
35435;BME280;21556;55.782;37.528;2022-08-19T07:41:10;100448.31;;;25.15;99.48
35435;BME280;21556;55.782;37.528;2022-08-19T07:43:36;100451.34;;;25.03;100.00
35435;BME280;21556;55.782;37.528;2022-08-19T07:46:02;100461.06;;;25.37;99.42
35435;BME280;21556;55.782;37.528;2022-08-19T07:48:28;100449.44;;;25.63;96.63
35435;BME280;21556;55.782;37.528;2022-08-19T07:50:57;100459.56;;;25.83;93.14
35435;BME280;21556;55.782;37.528;2022-08-19T07:53:24;100473.25;;;25.19;90.75
35435;BME280;21556;55.782;37.528;2022-08-19T07:55:50;100458.31;;;26.18;85.03
35435;BME280;21556;55.782;37.528;2022-08-19T07:58:19;100463.03;;;26.85;81.53
35435;BME280;21556;55.782;37.528;2022-08-19T08:00:47;100454.94;;;27.32;72.76
35435;BME280;21556;55.782;37.528;2022-08-19T08:03:15;100470.81;;;27.16;72.35
35435;BME280;21556;55.782;37.528;2022-08-19T08:05:41;100465.19;;;27.22;70.52
35435;BME280;21556;55.782;37.528;2022-08-19T08:08:26;100470.59;;;26.75;86.00
35435;BME280;21556;55.782;37.528;2022-08-19T08:11:12;100482.56;;;26.16;77.93
35435;BME280;21556;55.782;37.528;2022-08-19T08:13:38;100474.38;;;25.95;79.15
35435;BME280;21556;55.782;37.528;2022-08-19T08:16:06;100473.16;;;26.55;77.28
35435;BME280;21556;55.782;37.528;2022-08-19T08:18:33;100475.97;;;26.75;75.40
35435;BME280;21556;55.782;37.528;2022-08-19T08:21:02;100484.34;;;25.91;85.27
35435;BME280;21556;55.782;37.528;2022-08-19T08:23:28;100489.06;;;26.11;84.56
35435;BME280;21556;55.782;37.528;2022-08-19T08:25:57;100494.19;;;26.17;85.08
35435;BME280;21556;55.782;37.528;2022-08-19T08:28:25;100494.84;;;25.70;91.65
35435;BME280;21556;55.782;37.528;2022-08-19T08:30:51;100499.75;;;26.12;88.15
35435;BME280;21556;55.782;37.528;2022-08-19T08:33:22;100494.16;;;26.69;82.75
35435;BME280;21556;55.782;37.528;2022-08-19T08:35:47;100491.06;;;27.48;76.61
35435;BME280;21556;55.782;37.528;2022-08-19T08:38:14;100492.97;;;27.90;70.48
35435;BME280;21556;55.782;37.528;2022-08-19T08:40:49;100490.06;;;28.36;66.45
35435;BME280;21556;55.782;37.528;2022-08-19T08:51:08;100487.09;;;26.89;79.24
35435;BME280;21556;55.782;37.528;2022-08-19T08:53:36;100471.09;;;27.32;71.21
35435;BME280;21556;55.782;37.528;2022-08-19T08:56:04;100460.69;;;27.45;64.52
35435;BME280;21556;55.782;37.528;2022-08-19T08:58:41;100464.88;;;28.37;59.01
35435;BME280;21556;55.782;37.528;2022-08-19T09:01:10;100473.78;;;28.98;55.76
35435;BME280;21556;55.782;37.528;2022-08-19T09:03:38;100476.94;;;28.69;59.22
35435;BME280;21556;55.782;37.528;2022-08-19T09:06:12;100481.69;;;27.80;65.86
35435;BME280;21556;55.782;37.528;2022-08-19T09:17:09;100471.16;;;28.76;58.04
35435;BME280;21556;55.782;37.528;2022-08-19T09:19:46;100473.75;;;29.17;54.95
35435;BME280;21556;55.782;37.528;2022-08-19T09:22:13;100474.66;;;28.78;58.24
35435;BME280;21556;55.782;37.528;2022-08-19T09:24:39;100472.56;;;28.85;59.21
35435;BME280;21556;55.782;37.528;2022-08-19T09:27:09;100464.94;;;29.14;56.49
35435;BME280;21556;55.782;37.528;2022-08-19T09:29:35;100460.69;;;29.27;55.89
35435;BME280;21556;55.782;37.528;2022-08-19T09:32:01;100468.47;;;28.95;55.18
35435;BME280;21556;55.782;37.528;2022-08-19T09:34:27;100488.06;;;28.61;57.96
35435;BME280;21556;55.782;37.528;2022-08-19T09:36:54;100481.53;;;28.46;56.72
35435;BME280;21556;55.782;37.528;2022-08-19T09:39:25;100487.41;;;28.75;57.09
35435;BME280;21556;55.782;37.528;2022-08-19T09:41:51;100480.91;;;29.18;54.02
35435;BME280;21556;55.782;37.528;2022-08-19T09:44:18;100483.66;;;28.40;56.26
35435;BME280;21556;55.782;37.528;2022-08-19T09:46:46;100489.75;;;28.23;57.98
35435;BME280;21556;55.782;37.528;2022-08-19T09:49:16;100486.38;;;28.98;54.27
35435;BME280;21556;55.782;37.528;2022-08-19T09:51:43;100486.59;;;29.31;52.53
35435;BME280;21556;55.782;37.528;2022-08-19T09:54:08;100489.28;;;29.86;47.88
35435;BME280;21556;55.782;37.528;2022-08-19T09:56:35;100475.06;;;30.00;42.76
35435;BME280;21556;55.782;37.528;2022-08-19T09:59:02;100484.22;;;30.15;41.46
35435;BME280;21556;55.782;37.528;2022-08-19T10:01:30;100482.56;;;30.30;38.70
35435;BME280;21556;55.782;37.528;2022-08-19T10:03:58;100482.53;;;30.47;37.52
35435;BME280;21556;55.782;37.528;2022-08-19T10:06:26;100469.94;;;30.46;37.08
35435;BME280;21556;55.782;37.528;2022-08-19T10:08:56;100482.34;;;29.63;38.93
35435;BME280;21556;55.782;37.528;2022-08-19T10:11:21;100488.00;;;29.21;39.72
35435;BME280;21556;55.782;37.528;2022-08-19T10:13:48;100489.28;;;29.50;38.04
35435;BME280;21556;55.782;37.528;2022-08-19T10:16:17;100494.63;;;29.33;37.61
35435;BME280;21556;55.782;37.528;2022-08-19T10:18:44;100492.06;;;29.30;38.79
35435;BME280;21556;55.782;37.528;2022-08-19T10:21:13;100497.72;;;29.06;42.51
35435;BME280;21556;55.782;37.528;2022-08-19T10:23:42;100498.72;;;28.64;44.32
35435;BME280;21556;55.782;37.528;2022-08-19T10:26:18;100493.56;;;28.97;45.14
35435;BME280;21556;55.782;37.528;2022-08-19T10:28:45;100488.44;;;29.12;45.65
35435;BME280;21556;55.782;37.528;2022-08-19T10:31:14;100482.44;;;29.79;41.82
35435;BME280;21556;55.782;37.528;2022-08-19T10:33:41;100482.63;;;30.11;40.40
35435;BME280;21556;55.782;37.528;2022-08-19T10:36:12;100487.47;;;30.04;39.73
35435;BME280;21556;55.782;37.528;2022-08-19T10:38:43;100493.13;;;30.17;37.27
35435;BME280;21556;55.782;37.528;2022-08-19T10:41:19;100494.97;;;29.63;37.48
35435;BME280;21556;55.782;37.528;2022-08-19T10:43:45;100490.75;;;29.00;36.15
35435;BME280;21556;55.782;37.528;2022-08-19T10:46:14;100490.38;;;29.65;34.77
35435;BME280;21556;55.782;37.528;2022-08-19T10:48:41;100487.38;;;28.95;34.28
35435;BME280;21556;55.782;37.528;2022-08-19T10:51:09;100484.97;;;28.89;32.02
35435;BME280;21556;55.782;37.528;2022-08-19T10:53:54;100481.63;;;28.84;30.16
35435;BME280;21556;55.782;37.528;2022-08-19T10:56:21;100491.03;;;28.94;27.32
35435;BME280;21556;55.782;37.528;2022-08-19T10:59:08;100485.63;;;28.35;25.76
35435;BME280;21556;55.782;37.528;2022-08-19T11:01:35;100475.00;;;28.11;24.26
35435;BME280;21556;55.782;37.528;2022-08-19T11:04:02;100478.28;;;27.97;24.86
35435;BME280;21556;55.782;37.528;2022-08-19T11:06:30;100480.03;;;27.98;24.67
35435;BME280;21556;55.782;37.528;2022-08-19T11:08:58;100495.53;;;27.49;25.73
35435;BME280;21556;55.782;37.528;2022-08-19T11:11:26;100496.56;;;27.23;27.78
35435;BME280;21556;55.782;37.528;2022-08-19T11:13:54;100509.16;;;27.23;27.26
35435;BME280;21556;55.782;37.528;2022-08-19T11:16:22;100514.41;;;26.79;27.81
35435;BME280;21556;55.782;37.528;2022-08-19T11:18:51;100499.22;;;27.25;27.99
35435;BME280;21556;55.782;37.528;2022-08-19T11:21:27;100492.19;;;27.21;28.26
35435;BME280;21556;55.782;37.528;2022-08-19T11:23:56;100495.78;;;27.43;28.43
35435;BME280;21556;55.782;37.528;2022-08-19T11:26:25;100489.19;;;27.28;27.98
35435;BME280;21556;55.782;37.528;2022-08-19T11:28:51;100483.75;;;27.52;27.55
35435;BME280;21556;55.782;37.528;2022-08-19T11:31:22;100483.81;;;27.72;27.73
35435;BME280;21556;55.782;37.528;2022-08-19T11:33:48;100487.56;;;27.90;27.30
35435;BME280;21556;55.782;37.528;2022-08-19T11:36:18;100480.56;;;27.86;27.10
35435;BME280;21556;55.782;37.528;2022-08-19T11:38:47;100479.19;;;27.76;26.51
35435;BME280;21556;55.782;37.528;2022-08-19T11:41:15;100472.94;;;27.75;25.97
35435;BME280;21556;55.782;37.528;2022-08-19T11:43:41;100476.91;;;27.43;26.83
35435;BME280;21556;55.782;37.528;2022-08-19T11:46:10;100478.47;;;27.49;27.10
35435;BME280;21556;55.782;37.528;2022-08-19T11:48:37;100488.44;;;27.47;27.71
35435;BME280;21556;55.782;37.528;2022-08-19T11:51:07;100495.22;;;27.57;28.14
35435;BME280;21556;55.782;37.528;2022-08-19T11:53:34;100485.00;;;27.43;28.97
35435;BME280;21556;55.782;37.528;2022-08-19T11:56:01;100492.97;;;27.46;29.46
35435;BME280;21556;55.782;37.528;2022-08-19T11:58:27;100495.03;;;27.62;29.51
35435;BME280;21556;55.782;37.528;2022-08-19T12:00:54;100493.97;;;27.44;29.99
35435;BME280;21556;55.782;37.528;2022-08-19T12:03:20;100508.94;;;27.29;31.17
35435;BME280;21556;55.782;37.528;2022-08-19T12:05:46;100506.78;;;27.15;32.33
35435;BME280;21556;55.782;37.528;2022-08-19T12:08:12;100502.84;;;27.24;32.42
35435;BME280;21556;55.782;37.528;2022-08-19T12:10:40;100496.06;;;27.14;33.51
35435;BME280;21556;55.782;37.528;2022-08-19T12:13:09;100487.31;;;26.83;34.68
35435;BME280;21556;55.782;37.528;2022-08-19T12:15:39;100494.25;;;27.14;34.50
35435;BME280;21556;55.782;37.528;2022-08-19T12:18:08;100506.69;;;26.93;35.89
35435;BME280;21556;55.782;37.528;2022-08-19T12:20:40;100492.69;;;27.07;36.77
35435;BME280;21556;55.782;37.528;2022-08-19T12:23:08;100499.53;;;27.17;37.08
35435;BME280;21556;55.782;37.528;2022-08-19T12:25:36;100499.84;;;27.08;39.07
35435;BME280;21556;55.782;37.528;2022-08-19T12:28:03;100498.16;;;27.05;39.50
35435;BME280;21556;55.782;37.528;2022-08-19T12:30:29;100493.75;;;27.03;40.88
35435;BME280;21556;55.782;37.528;2022-08-19T12:32:55;100487.03;;;26.91;42.28
35435;BME280;21556;55.782;37.528;2022-08-19T12:35:21;100484.75;;;26.80;43.76
35435;BME280;21556;55.782;37.528;2022-08-19T12:37:48;100486.34;;;26.36;46.76
35435;BME280;21556;55.782;37.528;2022-08-19T12:40:15;100479.94;;;26.65;46.16
35435;BME280;21556;55.782;37.528;2022-08-19T12:42:42;100491.75;;;26.61;46.40
35435;BME280;21556;55.782;37.528;2022-08-19T12:45:09;100483.34;;;26.94;45.25
35435;BME280;21556;55.782;37.528;2022-08-19T12:47:36;100480.41;;;27.00;45.99
35435;BME280;21556;55.782;37.528;2022-08-19T12:50:02;100491.47;;;26.92;47.06
35435;BME280;21556;55.782;37.528;2022-08-19T12:52:29;100483.06;;;26.78;48.15
35435;BME280;21556;55.782;37.528;2022-08-19T12:54:56;100486.25;;;26.64;49.07
35435;BME280;21556;55.782;37.528;2022-08-19T12:57:24;100480.34;;;26.29;51.39
35435;BME280;21556;55.782;37.528;2022-08-19T12:59:54;100484.78;;;26.30;52.08
35435;BME280;21556;55.782;37.528;2022-08-19T13:02:20;100488.69;;;26.47;51.99